Time;durP1;ratioP1;P1;durP2;ratioP2;P2;SDS_P1;SDS_P2;PMS_P1;PMS_P2;Temp;Humidity;BMP_temperature;BMP_pressure;BME280_temperature;BME280_humidity;BME280_pressure;Samples;Min_cycle;Max_cycle;Signal;HPM_P1;HPM_P2
2023/12/03 00:00:10;;;;;;;1.60;1.20;;;22.00;99.90;;;;;;4955571;28;20058;-52
2023/12/03 00:02:37;;;;;;;2.28;1.10;;;22.00;99.90;;;;;;4954464;28;20051;-55
2023/12/03 00:05:03;;;;;;;2.00;1.25;;;22.00;99.90;;;;;;4953627;28;20070;-52
2023/12/03 00:07:30;;;;;;;3.00;1.17;;;21.90;99.90;;;;;;4954113;28;20031;-52
2023/12/03 00:09:56;;;;;;;1.20;0.90;;;22.00;99.90;;;;;;4953393;28;20066;-52
2023/12/03 00:12:22;;;;;;;1.75;1.10;;;21.90;99.90;;;;;;4954224;28;20019;-52
2023/12/03 00:14:49;;;;;;;1.73;1.27;;;21.90;99.90;;;;;;4960451;28;20494;-52
2023/12/03 00:17:14;;;;;;;2.40;1.55;;;21.90;99.90;;;;;;4972719;28;20023;-52
2023/12/03 00:19:40;;;;;;;1.63;0.95;;;21.90;99.90;;;;;;4972999;28;20019;-52
2023/12/03 00:22:07;;;;;;;1.63;1.02;;;21.90;99.90;;;;;;4972707;28;20038;-52
2023/12/03 00:24:33;;;;;;;1.52;1.00;;;21.90;99.90;;;;;;4972677;28;20027;-52
2023/12/03 00:26:59;;;;;;;1.35;0.98;;;21.80;99.90;;;;;;4973081;28;20037;-52
2023/12/03 00:29:26;;;;;;;2.13;1.08;;;21.80;99.90;;;;;;4968898;28;20043;-52
2023/12/03 00:31:54;;;;;;;1.75;0.85;;;21.80;99.90;;;;;;4954345;28;20433;-52
2023/12/03 00:34:20;;;;;;;1.65;0.90;;;21.80;99.90;;;;;;4960082;28;20024;-53
2023/12/03 00:36:46;;;;;;;1.70;1.10;;;21.80;99.90;;;;;;4972721;28;20026;-51
2023/12/03 00:39:11;;;;;;;2.35;1.00;;;21.80;99.90;;;;;;4973317;28;20453;-51
2023/12/03 00:41:38;;;;;;;1.40;0.90;;;21.80;99.90;;;;;;4959010;28;20070;-50
2023/12/03 00:44:04;;;;;;;2.00;1.25;;;21.80;99.90;;;;;;4956857;28;20387;-51
2023/12/03 00:46:30;;;;;;;2.80;1.00;;;21.70;99.90;;;;;;4955891;28;20031;-51
2023/12/03 00:48:56;;;;;;;1.38;0.80;;;21.70;99.90;;;;;;4957629;28;20053;-51
2023/12/03 00:51:22;;;;;;;1.67;1.05;;;21.70;99.90;;;;;;4957825;28;20061;-51
2023/12/03 00:53:48;;;;;;;3.17;0.82;;;21.70;99.90;;;;;;4964174;28;20058;-53
2023/12/03 00:56:14;;;;;;;1.95;0.68;;;21.70;99.90;;;;;;4976716;28;20039;-51
2023/12/03 00:58:39;;;;;;;2.72;0.98;;;21.70;99.90;;;;;;4970582;28;20019;-52
2023/12/03 01:01:05;;;;;;;1.92;1.02;;;21.70;99.90;;;;;;4977036;23;20050;-53
2023/12/03 01:03:31;;;;;;;1.25;0.80;;;21.70;99.90;;;;;;4976627;28;20030;-53
2023/12/03 01:05:57;;;;;;;1.15;0.80;;;21.60;99.90;;;;;;4975879;28;20415;-53
2023/12/03 01:08:24;;;;;;;1.65;1.10;;;21.60;99.90;;;;;;4975984;28;20038;-54
2023/12/03 01:10:49;;;;;;;0.90;0.80;;;21.60;99.90;;;;;;4976592;28;20499;-54
2023/12/03 01:13:15;;;;;;;2.55;0.90;;;21.60;99.90;;;;;;4976051;28;20102;-54
2023/12/03 01:15:43;;;;;;;1.73;1.00;;;21.60;99.90;;;;;;4976220;28;20039;-53
2023/12/03 01:18:10;;;;;;;2.20;1.00;;;21.60;99.90;;;;;;4972777;28;20491;-54
2023/12/03 01:20:36;;;;;;;1.25;0.90;;;21.60;99.90;;;;;;4976273;28;20039;-53
2023/12/03 01:23:02;;;;;;;1.63;0.80;;;21.60;99.90;;;;;;4976068;28;20023;-52
2023/12/03 01:25:28;;;;;;;1.20;0.68;;;21.50;99.90;;;;;;4973966;28;20042;-54
2023/12/03 01:27:53;;;;;;;1.75;0.77;;;21.50;99.90;;;;;;4976420;28;20106;-53
2023/12/03 01:30:19;;;;;;;2.35;1.00;;;21.50;99.90;;;;;;4975487;28;20089;-52
2023/12/03 01:32:45;;;;;;;2.05;1.00;;;21.50;99.90;;;;;;5007418;28;20502;-52
2023/12/03 01:35:11;;;;;;;2.13;1.30;;;21.50;99.90;;;;;;4976095;28;20454;-53
2023/12/03 01:37:37;;;;;;;1.45;1.00;;;21.50;99.90;;;;;;4974896;28;20027;-52
2023/12/03 01:40:03;;;;;;;1.33;0.68;;;21.40;99.90;;;;;;4974480;28;20033;-53
2023/12/03 01:42:29;;;;;;;1.30;0.88;;;21.50;99.90;;;;;;4966291;28;20025;-52
2023/12/03 01:44:55;;;;;;;1.83;0.95;;;21.40;99.90;;;;;;4960365;28;20039;-52
2023/12/03 01:47:21;;;;;;;3.67;1.10;;;21.50;99.90;;;;;;4973292;28;20054;-53
2023/12/03 01:49:48;;;;;;;1.35;0.75;;;21.40;99.90;;;;;;4980310;28;20133;-52
2023/12/03 01:52:14;;;;;;;3.15;1.17;;;21.40;99.90;;;;;;4971343;28;20019;-52
2023/12/03 01:54:43;;;;;;;3.38;0.88;;;21.40;99.90;;;;;;4972541;28;20472;-52
2023/12/03 01:57:10;;;;;;;1.20;1.10;;;21.40;99.90;;;;;;4971191;28;20089;-52
2023/12/03 01:59:36;;;;;;;2.15;1.10;;;21.40;99.90;;;;;;4972828;28;20031;-52
2023/12/03 02:02:05;;;;;;;1.27;0.70;;;21.30;99.90;;;;;;4996295;22;20062;-48
2023/12/03 02:04:31;;;;;;;0.95;0.80;;;21.30;99.90;;;;;;4980572;28;20093;-48
2023/12/03 02:06:56;;;;;;;1.50;0.85;;;21.30;99.90;;;;;;4994620;28;20114;-48
2023/12/03 02:09:23;;;;;;;1.63;0.80;;;21.30;99.90;;;;;;4996255;28;20038;-49
2023/12/03 02:11:49;;;;;;;1.65;0.88;;;21.30;99.90;;;;;;4994325;28;20383;-48
2023/12/03 02:14:15;;;;;;;1.63;0.70;;;21.30;99.90;;;;;;4997095;28;20037;-49
2023/12/03 02:16:45;;;;;;;3.55;0.80;;;21.30;99.90;;;;;;4985154;28;20483;-47
2023/12/03 02:19:11;;;;;;;1.27;0.70;;;21.30;99.90;;;;;;4994399;28;20033;-48
2023/12/03 02:21:37;;;;;;;1.58;0.90;;;21.30;99.90;;;;;;4982985;28;20022;-48
2023/12/03 02:24:03;;;;;;;0.52;0.50;;;21.20;99.90;;;;;;4977080;28;20106;-48
2023/12/03 02:26:28;;;;;;;1.48;0.90;;;21.20;99.90;;;;;;4975725;28;20018;-48
2023/12/03 02:28:54;;;;;;;1.30;0.50;;;21.20;99.90;;;;;;4983433;28;20093;-48
2023/12/03 02:31:20;;;;;;;4.45;1.00;;;21.20;99.90;;;;;;4994491;28;20030;-48
2023/12/03 02:34:11;;;;;;;2.53;1.05;;;21.20;99.90;;;;;;4976636;28;20023;-47
2023/12/03 02:36:37;;;;;;;3.70;0.63;;;21.20;99.90;;;;;;4977028;28;20043;-47
2023/12/03 02:39:04;;;;;;;0.90;0.60;;;21.20;99.90;;;;;;4993647;28;20104;-47
2023/12/03 02:41:30;;;;;;;1.35;1.00;;;21.20;99.90;;;;;;4989733;28;20110;-46
2023/12/03 02:43:55;;;;;;;3.13;1.35;;;21.20;99.90;;;;;;4991295;28;20113;-47
2023/12/03 02:46:22;;;;;;;4.00;0.95;;;21.10;99.90;;;;;;4987349;28;20419;-46
2023/12/03 02:48:47;;;;;;;2.20;1.27;;;21.10;99.90;;;;;;4987705;28;20093;-48
2023/12/03 02:51:13;;;;;;;2.67;0.65;;;21.10;99.90;;;;;;4978526;28;20026;-47
2023/12/03 02:53:40;;;;;;;2.15;0.63;;;21.10;99.90;;;;;;4991558;28;20077;-47
2023/12/03 02:56:06;;;;;;;4.43;0.82;;;21.10;99.90;;;;;;4991919;28;20029;-47
2023/12/03 02:58:33;;;;;;;3.13;0.85;;;21.10;99.90;;;;;;4987688;28;20015;-48
2023/12/03 03:00:59;;;;;;;1.48;0.70;;;21.10;99.90;;;;;;4999545;23;20050;-54
2023/12/03 03:03:24;;;;;;;3.53;0.73;;;21.10;99.90;;;;;;4984391;28;20026;-50
2023/12/03 03:05:50;;;;;;;0.82;0.60;;;21.10;99.90;;;;;;4986979;28;20030;-54
2023/12/03 03:08:16;;;;;;;3.05;0.77;;;21.10;99.90;;;;;;4983022;28;20436;-50
2023/12/03 03:10:42;;;;;;;0.90;0.70;;;21.10;99.90;;;;;;4981090;28;20085;-51
2023/12/03 03:13:08;;;;;;;1.20;0.73;;;21.10;99.90;;;;;;4980511;28;20019;-54
2023/12/03 03:15:36;;;;;;;0.68;0.57;;;21.10;99.90;;;;;;4977671;28;20083;-52
2023/12/03 03:18:01;;;;;;;1.05;0.80;;;21.10;99.90;;;;;;4978759;28;20047;-52
2023/12/03 03:20:28;;;;;;;0.98;0.63;;;21.00;99.90;;;;;;4975540;28;20118;-50
2023/12/03 03:22:53;;;;;;;1.17;0.57;;;21.00;99.90;;;;;;4989947;28;20014;-52
2023/12/03 03:25:19;;;;;;;1.45;0.50;;;21.00;99.90;;;;;;4988352;28;20364;-52
2023/12/03 03:27:45;;;;;;;0.85;0.57;;;21.00;99.90;;;;;;4984404;28;20031;-51
2023/12/03 03:30:11;;;;;;;2.30;0.70;;;21.00;99.90;;;;;;4990324;28;20034;-52
2023/12/03 03:32:37;;;;;;;2.20;0.60;;;21.00;99.90;;;;;;4993027;28;20018;-52
2023/12/03 03:35:03;;;;;;;1.63;0.77;;;21.00;99.90;;;;;;4988554;28;20117;-52
2023/12/03 03:37:30;;;;;;;3.03;0.70;;;21.00;99.90;;;;;;4978970;28;20022;-51
2023/12/03 03:39:55;;;;;;;2.50;0.70;;;21.00;99.90;;;;;;4981821;28;20554;-52
2023/12/03 03:42:21;;;;;;;2.33;0.57;;;20.90;99.90;;;;;;4976953;28;20109;-52
2023/12/03 03:44:47;;;;;;;1.73;0.50;;;20.90;99.90;;;;;;4976294;28;20027;-52
2023/12/03 03:47:13;;;;;;;1.73;0.43;;;21.00;99.90;;;;;;4973389;28;20541;-51
2023/12/03 03:49:40;;;;;;;1.63;0.60;;;20.90;99.90;;;;;;4988356;28;20031;-52
2023/12/03 03:52:06;;;;;;;1.40;0.60;;;20.90;99.90;;;;;;4991001;28;20064;-52
2023/12/03 03:54:32;;;;;;;1.25;0.50;;;20.90;99.90;;;;;;4992273;28;20094;-52
2023/12/03 03:56:58;;;;;;;2.03;0.52;;;20.90;99.90;;;;;;4991905;28;20026;-52
2023/12/03 03:59:24;;;;;;;1.25;0.60;;;20.90;99.90;;;;;;4991895;28;20057;-51
2023/12/03 04:01:50;;;;;;;1.17;0.88;;;20.90;99.90;;;;;;4993345;28;20129;-51
2023/12/03 04:04:16;;;;;;;1.92;0.60;;;20.90;99.90;;;;;;4992664;28;20060;-51
2023/12/03 04:06:46;;;;;;;4.75;0.85;;;20.90;99.90;;;;;;4992948;28;20026;-52
2023/12/03 04:09:13;;;;;;;0.60;0.38;;;20.80;99.90;;;;;;4992578;28;20157;-52
2023/12/03 04:11:43;;;;;;;3.83;0.93;;;20.80;99.90;;;;;;4993056;28;20092;-52
2023/12/03 04:14:10;;;;;;;1.48;0.60;;;20.80;99.90;;;;;;4992694;28;20049;-52
2023/12/03 04:16:36;;;;;;;;;;;20.80;99.90;;;;;;4993382;28;20010;-51
2023/12/03 04:19:02;;;;;;;1.35;0.68;;;20.80;99.90;;;;;;4992001;28;19916;-51
2023/12/03 04:21:29;;;;;;;2.33;0.70;;;20.80;99.90;;;;;;4992576;28;20034;-51
2023/12/03 04:23:57;;;;;;;2.58;0.80;;;20.80;99.90;;;;;;4992640;28;20367;-51
2023/12/03 04:26:23;;;;;;;;;;;20.80;99.90;;;;;;4992877;28;20019;-51
2023/12/03 04:28:49;;;;;;;2.03;0.55;;;20.70;99.90;;;;;;4992571;28;20000;-52
2023/12/03 04:31:25;;;;;;;0.70;0.40;;;20.70;99.90;;;;;;4992398;28;20454;-51
2023/12/03 04:33:52;;;;;;;0.63;0.40;;;20.70;99.90;;;;;;5007675;28;20030;-51
2023/12/03 04:36:19;;;;;;;1.40;0.70;;;20.70;99.90;;;;;;4992386;28;20026;-51
2023/12/03 04:38:45;;;;;;;0.83;0.40;;;20.70;99.90;;;;;;4992475;28;20260;-51
2023/12/03 04:41:11;;;;;;;2.05;0.57;;;20.70;99.90;;;;;;4992640;28;20295;-52
2023/12/03 04:43:38;;;;;;;1.98;0.88;;;20.70;99.90;;;;;;4979912;28;20073;-51
2023/12/03 04:46:05;;;;;;;3.65;0.60;;;20.60;99.90;;;;;;4992368;28;20356;-51
2023/12/03 04:48:31;;;;;;;1.95;0.65;;;20.60;99.90;;;;;;4992150;28;20490;-52
2023/12/03 04:50:57;;;;;;;1.20;0.40;;;20.60;99.90;;;;;;4990234;28;20384;-52
2023/12/03 04:53:23;;;;;;;1.13;0.40;;;20.60;99.90;;;;;;4989345;28;20034;-51
2023/12/03 04:55:49;;;;;;;1.55;0.57;;;20.60;99.90;;;;;;4989404;28;20030;-51
2023/12/03 04:58:15;;;;;;;0.50;0.30;;;20.60;99.90;;;;;;4991192;28;20025;-51
2023/12/03 05:00:40;;;;;;;2.67;0.65;;;20.60;99.90;;;;;;4991809;28;20356;-51
2023/12/03 05:03:06;;;;;;;0.75;0.55;;;20.60;99.90;;;;;;4992190;28;20034;-51
2023/12/03 05:05:32;;;;;;;1.27;0.60;;;20.50;99.90;;;;;;4992024;28;20080;-51
2023/12/03 05:07:58;;;;;;;1.13;0.65;;;20.60;99.90;;;;;;4992108;28;20031;-51
2023/12/03 05:10:24;;;;;;;1.55;0.60;;;20.50;99.90;;;;;;4991941;28;20130;-51
2023/12/03 05:12:49;;;;;;;1.55;0.80;;;20.50;99.90;;;;;;4992067;28;20522;-52
2023/12/03 05:15:15;;;;;;;0.65;0.50;;;20.50;99.90;;;;;;4992130;28;20483;-52
2023/12/03 05:17:41;;;;;;;7.50;0.68;;;20.50;99.90;;;;;;4992173;28;20109;-51
2023/12/03 05:20:07;;;;;;;1.85;0.70;;;20.50;99.90;;;;;;4992225;28;20077;-51
2023/12/03 05:22:33;;;;;;;0.77;0.47;;;20.50;99.90;;;;;;4991903;28;20034;-52
2023/12/03 05:24:59;;;;;;;2.17;0.60;;;20.40;99.90;;;;;;4991900;28;20049;-52
2023/12/03 05:27:25;;;;;;;1.40;0.60;;;20.40;99.90;;;;;;4992020;28;20101;-52
2023/12/03 05:29:51;;;;;;;1.35;0.57;;;20.40;99.90;;;;;;4993948;28;20058;-52
2023/12/03 05:32:16;;;;;;;0.98;0.50;;;20.40;99.90;;;;;;4994249;28;20089;-52
2023/12/03 05:34:46;;;;;;;2.65;0.60;;;20.40;99.90;;;;;;4995409;28;20073;-52
2023/12/03 05:37:12;;;;;;;0.73;0.60;;;20.40;99.90;;;;;;4995764;28;20383;-52
2023/12/03 05:39:39;;;;;;;1.00;0.32;;;20.40;99.90;;;;;;4995154;28;20026;-50
2023/12/03 05:42:05;;;;;;;1.00;0.45;;;20.40;99.90;;;;;;4995374;28;20548;-51
2023/12/03 05:44:30;;;;;;;1.42;0.50;;;20.40;99.90;;;;;;4995263;28;20105;-49
2023/12/03 05:46:56;;;;;;;0.93;0.68;;;20.40;99.90;;;;;;4995153;28;20089;-49
2023/12/03 05:49:22;;;;;;;3.60;0.50;;;20.40;99.90;;;;;;4995192;28;20451;-50
2023/12/03 05:51:49;;;;;;;0.77;0.55;;;20.30;99.90;;;;;;4994892;28;20022;-49
2023/12/03 05:54:16;;;;;;;0.47;0.30;;;20.30;99.90;;;;;;4994211;28;20022;-50
2023/12/03 05:56:42;;;;;;;1.15;0.70;;;20.30;99.90;;;;;;4995323;28;20038;-50
2023/12/03 05:59:08;;;;;;;0.50;0.40;;;20.30;99.90;;;;;;4994963;28;20475;-51
2023/12/03 06:01:34;;;;;;;1.25;0.70;;;20.30;99.90;;;;;;4994859;28;20113;-49
2023/12/03 06:04:06;;;;;;;0.40;0.30;;;20.30;99.90;;;;;;4994942;28;20073;-50
2023/12/03 06:06:32;;;;;;;1.38;0.60;;;20.30;99.90;;;;;;4995016;28;20827;-50
2023/12/03 06:08:58;;;;;;;1.25;0.70;;;20.30;99.90;;;;;;4994806;28;20455;-49
2023/12/03 06:11:23;;;;;;;1.15;0.40;;;20.30;99.90;;;;;;4994897;28;20050;-49
2023/12/03 06:13:49;;;;;;;1.38;0.50;;;20.20;99.90;;;;;;4994926;28;20022;-49
2023/12/03 06:16:15;;;;;;;0.75;0.40;;;20.20;99.90;;;;;;4994770;28;20463;-51
2023/12/03 06:18:42;;;;;;;0.77;0.40;;;20.20;99.90;;;;;;4995119;28;20022;-50
2023/12/03 06:21:08;;;;;;;1.55;0.60;;;20.20;99.90;;;;;;4994686;28;20506;-50
2023/12/03 06:23:34;;;;;;;0.40;0.20;;;20.20;99.90;;;;;;4994941;28;20026;-51
2023/12/03 06:26:00;;;;;;;0.55;0.43;;;20.20;99.90;;;;;;4994517;28;20073;-52
2023/12/03 06:28:25;;;;;;;1.95;0.45;;;20.20;99.90;;;;;;4994600;28;20028;-51
2023/12/03 06:30:51;;;;;;;2.67;0.38;;;20.20;99.90;;;;;;4994519;28;20034;-51
2023/12/03 06:33:20;;;;;;;0.65;0.35;;;20.20;99.90;;;;;;4994411;28;20410;-50
2023/12/03 06:35:46;;;;;;;1.05;0.32;;;20.20;99.90;;;;;;4994715;28;20400;-50
2023/12/03 06:38:12;;;;;;;0.65;0.40;;;20.20;99.90;;;;;;4994482;28;20102;-50
2023/12/03 06:40:38;;;;;;;2.10;0.40;;;20.20;99.90;;;;;;4993831;28;20029;-49
2023/12/03 06:43:04;;;;;;;0.98;0.50;;;20.10;99.90;;;;;;4994045;28;20027;-50
2023/12/03 06:45:29;;;;;;;1.10;0.50;;;20.10;99.90;;;;;;4994152;28;20026;-50
2023/12/03 06:47:55;;;;;;;0.88;0.40;;;20.10;99.90;;;;;;4994146;28;20080;-49
2023/12/03 06:50:21;;;;;;;0.95;0.47;;;20.10;99.90;;;;;;4993970;28;20436;-49
2023/12/03 06:52:47;;;;;;;0.70;0.40;;;20.10;99.90;;;;;;4994380;28;20049;-49
2023/12/03 06:55:13;;;;;;;2.05;0.70;;;20.10;99.90;;;;;;4993974;28;20038;-49
2023/12/03 06:57:38;;;;;;;0.45;0.40;;;20.10;99.90;;;;;;4993931;28;20053;-49
2023/12/03 07:00:08;;;;;;;2.47;0.40;;;20.10;99.90;;;;;;4994163;28;20023;-49
2023/12/03 07:02:34;;;;;;;1.23;0.90;;;20.00;99.90;;;;;;4993669;28;20118;-49
2023/12/03 07:05:00;;;;;;;1.88;0.50;;;20.10;99.90;;;;;;4992875;28;20102;-48
2023/12/03 07:07:25;;;;;;;0.70;0.40;;;20.00;99.90;;;;;;5008750;28;20481;-49
2023/12/03 07:09:51;;;;;;;0.73;0.40;;;20.00;99.90;;;;;;4993816;28;20057;-49
2023/12/03 07:12:17;;;;;;;1.25;0.52;;;20.00;99.90;;;;;;4993786;28;20068;-50
2023/12/03 07:14:43;;;;;;;0.60;0.40;;;20.00;99.90;;;;;;4993719;28;20034;-50
2023/12/03 07:17:09;;;;;;;1.05;0.60;;;20.00;99.90;;;;;;4993587;28;20037;-49
2023/12/03 07:19:35;;;;;;;1.48;0.50;;;20.00;99.90;;;;;;4993506;28;20023;-50
2023/12/03 07:22:00;;;;;;;0.80;0.60;;;20.00;99.90;;;;;;4993641;28;20018;-50
2023/12/03 07:24:26;;;;;;;0.93;0.50;;;20.00;99.90;;;;;;4993398;28;20030;-49
2023/12/03 07:26:52;;;;;;;1.17;0.50;;;20.00;99.90;;;;;;4993431;28;20562;-49
2023/12/03 07:29:18;;;;;;;1.83;0.45;;;20.00;99.90;;;;;;4993537;28;20042;-49
2023/12/03 07:31:44;;;;;;;1.38;0.65;;;20.00;99.90;;;;;;4993389;28;20022;-50
2023/12/03 07:34:10;;;;;;;1.77;0.73;;;20.00;99.90;;;;;;4993262;28;20073;-50
2023/12/03 07:36:36;;;;;;;0.65;0.40;;;20.00;99.90;;;;;;4991969;28;20027;-50
2023/12/03 07:39:02;;;;;;;0.88;0.43;;;20.00;99.90;;;;;;4992059;28;20697;-49
2023/12/03 07:41:28;;;;;;;2.47;0.73;;;20.00;99.90;;;;;;4993082;28;20044;-49
2023/12/03 07:43:53;;;;;;;1.08;0.63;;;20.00;99.90;;;;;;4993180;28;20535;-50
2023/12/03 07:46:19;;;;;;;1.05;0.77;;;20.10;99.90;;;;;;4993176;28;20031;-50
2023/12/03 07:48:46;;;;;;;1.63;0.52;;;20.10;99.90;;;;;;4993036;28;20379;-50
2023/12/03 07:51:11;;;;;;;1.27;0.77;;;20.10;99.90;;;;;;4992983;28;20121;-50
2023/12/03 07:53:39;;;;;;;2.08;0.60;;;20.20;99.90;;;;;;4991982;28;20440;-50
2023/12/03 07:56:05;;;;;;;1.95;0.80;;;20.20;99.90;;;;;;4992864;28;20034;-49
2023/12/03 07:58:31;;;;;;;1.02;0.85;;;20.20;99.90;;;;;;4992681;28;20541;-51
2023/12/03 08:00:59;;;;;;;2.20;0.95;;;20.20;99.90;;;;;;4992719;28;20121;-51
2023/12/03 08:03:25;;;;;;;0.90;0.70;;;20.30;99.90;;;;;;4992807;28;20025;-50
2023/12/03 08:05:51;;;;;;;1.10;0.68;;;20.30;99.90;;;;;;4992972;28;20405;-51
2023/12/03 08:08:17;;;;;;;2.25;0.80;;;20.40;99.90;;;;;;4992980;28;20364;-50
2023/12/03 08:10:43;;;;;;;1.35;0.70;;;20.40;99.90;;;;;;4992581;28;20459;-50
2023/12/03 08:13:09;;;;;;;2.33;0.70;;;20.40;99.90;;;;;;4991526;28;20029;-51
2023/12/03 08:15:35;;;;;;;1.33;0.70;;;20.40;99.90;;;;;;4992639;28;20542;-50
2023/12/03 08:18:01;;;;;;;4.70;1.08;;;20.50;99.90;;;;;;4992709;28;20022;-51
2023/12/03 08:20:26;;;;;;;0.80;0.63;;;20.50;99.90;;;;;;4992715;28;20022;-50
2023/12/03 08:22:53;;;;;;;1.88;1.30;;;20.60;99.90;;;;;;4992652;28;20024;-56
2023/12/03 08:25:19;;;;;;;1.30;0.85;;;20.60;99.90;;;;;;4992757;28;20046;-49
2023/12/03 08:27:45;;;;;;;1.92;0.90;;;20.60;99.90;;;;;;4992353;28;20034;-50
2023/12/03 08:30:11;;;;;;;2.08;1.20;;;20.60;99.90;;;;;;4992416;28;20365;-51
2023/12/03 08:32:36;;;;;;;2.13;1.10;;;20.60;99.90;;;;;;4992410;28;20076;-51
2023/12/03 08:35:03;;;;;;;2.67;0.90;;;20.70;99.90;;;;;;4992619;28;20042;-50
2023/12/03 08:37:28;;;;;;;2.17;1.02;;;20.70;99.90;;;;;;4991186;28;20601;-50
2023/12/03 08:39:54;;;;;;;2.38;1.00;;;20.80;99.90;;;;;;4992261;28;20050;-50
2023/12/03 08:42:20;;;;;;;1.50;0.98;;;20.80;99.90;;;;;;4992551;28;20058;-50
2023/12/03 08:44:46;;;;;;;1.65;0.88;;;20.90;99.90;;;;;;4992209;28;20058;-50
2023/12/03 08:47:13;;;;;;;2.45;0.98;;;20.90;99.90;;;;;;4992192;28;20029;-50
2023/12/03 08:49:39;;;;;;;2.00;1.00;;;20.90;99.90;;;;;;4992204;28;20057;-51
2023/12/03 08:52:06;;;;;;;2.35;0.98;;;20.90;99.90;;;;;;4992257;28;20034;-50
2023/12/03 08:54:35;;;;;;;1.73;1.05;;;21.00;99.90;;;;;;4992372;28;20030;-50
2023/12/03 08:57:02;;;;;;;1.80;1.05;;;21.00;99.90;;;;;;4992330;28;20031;-49
2023/12/03 08:59:28;;;;;;;3.45;1.25;;;21.00;99.90;;;;;;4992352;28;20102;-50
2023/12/03 09:01:54;;;;;;;2.22;1.55;;;21.10;99.90;;;;;;4992242;28;20054;-49
2023/12/03 09:04:20;;;;;;;3.85;1.02;;;21.10;99.90;;;;;;4993875;28;20026;-49
2023/12/03 09:06:46;;;;;;;2.97;1.10;;;21.20;99.90;;;;;;4995987;28;20034;-49
2023/12/03 09:09:12;;;;;;;4.45;1.50;;;21.20;99.90;;;;;;4995824;28;20035;-49
2023/12/03 09:11:42;;;;;;;1.58;0.80;;;21.20;99.90;;;;;;4995932;28;20030;-50
2023/12/03 09:14:08;;;;;;;2.63;1.02;;;21.30;99.90;;;;;;4995775;28;20474;-49
2023/12/03 09:16:34;;;;;;;1.98;1.00;;;21.30;99.90;;;;;;4995812;28;20049;-50
2023/12/03 09:19:00;;;;;;;4.22;1.27;;;21.30;99.90;;;;;;5010773;28;20029;-50
2023/12/03 09:21:25;;;;;;;1.98;1.08;;;21.40;99.90;;;;;;4995841;28;20014;-49
2023/12/03 09:23:51;;;;;;;2.25;1.30;;;21.40;99.90;;;;;;4995937;28;20109;-51
2023/12/03 09:26:17;;;;;;;3.42;1.30;;;21.40;99.90;;;;;;4995522;28;20023;-51
2023/12/03 09:28:43;;;;;;;3.55;1.05;;;21.40;99.90;;;;;;4995684;28;20042;-49
2023/12/03 09:31:10;;;;;;;2.25;1.20;;;21.50;99.90;;;;;;4995565;28;20038;-50
2023/12/03 09:33:36;;;;;;;2.35;1.52;;;21.50;99.90;;;;;;4994375;28;20108;-50
2023/12/03 09:36:01;;;;;;;2.55;1.65;;;21.50;99.90;;;;;;4995306;28;20145;-49
2023/12/03 09:38:27;;;;;;;5.45;1.77;;;21.60;99.90;;;;;;4995513;28;20049;-50
2023/12/03 09:40:55;;;;;;;2.30;1.20;;;21.60;99.90;;;;;;4995779;28;20376;-51
2023/12/03 09:43:22;;;;;;;1.60;1.38;;;21.60;99.90;;;;;;4995568;28;20089;-50
2023/12/03 09:45:49;;;;;;;4.50;1.40;;;21.70;99.90;;;;;;4995353;28;20098;-51
2023/12/03 09:48:19;;;;;;;2.47;1.30;;;21.70;99.90;;;;;;4995107;28;20015;-51
2023/12/03 09:50:46;;;;;;;3.35;1.75;;;21.80;99.90;;;;;;4995178;28;20057;-51
2023/12/03 09:53:14;;;;;;;5.78;1.60;;;21.80;99.90;;;;;;4995425;28;20069;-50
2023/12/03 09:55:41;;;;;;;3.13;1.65;;;21.80;99.90;;;;;;4995066;28;20022;-51
2023/12/03 09:58:15;;;;;;;5.05;1.70;;;21.90;99.90;;;;;;4995097;28;20097;-50
2023/12/03 10:00:41;;;;;;;2.75;1.40;;;21.90;99.90;;;;;;4994795;28;20074;-50
2023/12/03 10:03:08;;;;;;;5.15;1.90;;;21.90;99.90;;;;;;4995110;28;20374;-50
2023/12/03 10:05:34;;;;;;;4.83;1.70;;;22.00;99.90;;;;;;4993644;28;20026;-50
2023/12/03 10:08:00;;;;;;;2.53;2.05;;;22.00;99.90;;;;;;4993915;28;20483;-50
2023/12/03 10:10:31;;;;;;;2.78;1.85;;;22.10;99.90;;;;;;4995047;28;20035;-50
2023/12/03 10:12:58;;;;;;;2.65;1.98;;;22.10;99.90;;;;;;5010116;28;20018;-50
2023/12/03 10:15:25;;;;;;;3.97;1.90;;;22.20;99.90;;;;;;4994169;28;20029;-50
2023/12/03 10:17:51;;;;;;;5.53;1.48;;;22.20;99.90;;;;;;4994649;28;20027;-50
2023/12/03 10:20:28;;;;;;;2.92;1.70;;;22.30;99.90;;;;;;4994715;28;20106;-50
2023/12/03 10:23:02;;;;;;;4.37;2.17;;;22.30;99.90;;;;;;4994804;28;20017;-50
2023/12/03 10:25:31;;;;;;;3.67;1.80;;;22.40;99.90;;;;;;4994782;28;20264;-50
2023/12/03 10:27:59;;;;;;;3.47;1.67;;;22.50;99.90;;;;;;4994671;28;20018;-50
2023/12/03 10:30:25;;;;;;;5.20;2.20;;;22.50;99.90;;;;;;5009516;28;20168;-51
2023/12/03 10:32:52;;;;;;;3.13;2.15;;;22.60;99.90;;;;;;4994365;28;20098;-51
2023/12/03 10:35:24;;;;;;;4.78;2.17;;;22.60;99.90;;;;;;4994437;28;20026;-51
2023/12/03 10:37:51;;;;;;;3.83;2.10;;;22.70;99.90;;;;;;4994325;28;20069;-51
2023/12/03 10:40:20;;;;;;;6.65;2.45;;;22.70;99.90;;;;;;4993222;28;20018;-51
2023/12/03 10:42:47;;;;;;;2.75;1.75;;;22.80;99.90;;;;;;4994240;28;20030;-52
2023/12/03 10:45:14;;;;;;;3.45;1.90;;;22.80;99.90;;;;;;4980716;28;20029;-52
2023/12/03 10:47:41;;;;;;;3.10;2.22;;;22.90;99.90;;;;;;5009496;28;20022;-51
2023/12/03 10:50:10;;;;;;;4.45;1.98;;;23.00;99.90;;;;;;4994003;28;20081;-52
2023/12/03 10:52:39;;;;;;;4.80;2.05;;;23.00;99.90;;;;;;4994080;28;20475;-52
2023/12/03 10:55:06;;;;;;;3.72;2.10;;;23.10;99.90;;;;;;4994002;28;20104;-51
2023/12/03 10:57:33;;;;;;;;;;;23.10;99.90;;;;;;4994266;28;20380;-51
2023/12/03 11:00:11;;;;;;;4.95;2.00;;;23.20;99.90;;;;;;4994115;28;19913;-52
2023/12/03 11:02:54;;;;;;;7.03;2.28;;;23.20;99.90;;;;;;4993478;28;20514;-50
2023/12/03 11:05:32;;;;;;;4.25;2.00;;;23.20;99.90;;;;;;4993660;28;20054;-51
2023/12/03 11:08:01;;;;;;;6.85;2.25;;;23.30;99.90;;;;;;4981584;28;20077;-50
2023/12/03 11:10:27;;;;;;;4.40;2.00;;;23.30;99.90;;;;;;4993717;28;20497;-51
2023/12/03 11:12:54;;;;;;;4.55;2.10;;;23.30;99.90;;;;;;4993508;28;20054;-51
2023/12/03 11:15:21;;;;;;;10.25;2.22;;;23.40;99.90;;;;;;5008833;28;20482;-50
2023/12/03 11:17:49;;;;;;;4.55;2.60;;;23.40;99.90;;;;;;4993607;28;20058;-50
2023/12/03 11:20:23;;;;;;;5.13;2.75;;;23.40;99.90;;;;;;4993505;28;20491;-49
2023/12/03 11:23:15;;;;;;;5.90;2.40;;;23.50;99.90;;;;;;4993526;28;20030;-50
2023/12/03 11:25:57;;;;;;;5.03;2.42;;;23.50;99.90;;;;;;4993607;28;20422;-49
2023/12/03 11:28:23;;;;;;;4.60;2.30;;;23.50;99.90;;;;;;4992032;28;20564;-49
2023/12/03 11:30:49;;;;;;;4.65;2.42;;;23.60;99.90;;;;;;4992163;28;20117;-51
2023/12/03 11:33:20;;;;;;;7.60;2.38;;;23.60;99.90;;;;;;4993203;28;20498;-51
2023/12/03 11:35:46;;;;;;;3.85;2.40;;;23.70;99.90;;;;;;4993216;28;20038;-51
2023/12/03 11:38:32;;;;;;;3.78;2.33;;;23.70;99.90;;;;;;4993087;28;20014;-52
2023/12/03 11:40:58;;;;;;;4.43;2.65;;;23.70;99.90;;;;;;4993363;28;20030;-52
2023/12/03 11:43:31;;;;;;;4.28;2.92;;;23.70;99.90;;;;;;4992988;28;20443;-52
2023/12/03 11:46:00;;;;;;;4.45;2.72;;;23.80;99.90;;;;;;4993063;28;20073;-52
2023/12/03 11:48:32;;;;;;;5.75;3.15;;;23.80;99.90;;;;;;4992735;28;20105;-52
2023/12/03 11:50:58;;;;;;;6.65;3.25;;;23.90;99.90;;;;;;4992857;28;20113;-53
2023/12/03 11:53:39;;;;;;;5.35;3.65;;;23.90;99.90;;;;;;4993022;28;20109;-52
2023/12/03 11:56:08;;;;;;;6.45;3.47;;;23.90;99.90;;;;;;4992930;28;20105;-52
2023/12/03 11:58:33;;;;;;;5.78;3.50;;;24.00;99.90;;;;;;4993103;28;20045;-52
2023/12/03 12:00:59;;;;;;;6.30;3.80;;;24.00;99.90;;;;;;4992908;28;20467;-52
2023/12/03 12:03:25;;;;;;;7.82;4.00;;;24.00;99.90;;;;;;4992943;28;20027;-52
2023/12/03 12:05:52;;;;;;;6.22;4.00;;;24.10;99.90;;;;;;4992821;28;20594;-52
2023/12/03 12:08:22;;;;;;;8.30;4.07;;;24.10;99.90;;;;;;4992757;28;20019;-52
2023/12/03 12:10:49;;;;;;;8.55;4.70;;;24.10;99.90;;;;;;4992549;28;20038;-51
2023/12/03 12:13:16;;;;;;;9.48;4.30;;;24.10;99.90;;;;;;4992680;28;20096;-51
2023/12/03 12:15:43;;;;;;;7.75;4.93;;;24.20;99.90;;;;;;4992613;28;20161;-52
2023/12/03 12:18:12;;;;;;;7.63;4.80;;;24.20;99.90;;;;;;4992725;28;20015;-52
2023/12/03 12:20:38;;;;;;;8.43;5.15;;;24.20;99.90;;;;;;4992572;28;20026;-51
2023/12/03 12:23:04;;;;;;;10.65;5.13;;;24.30;99.90;;;;;;4992569;28;20053;-51
2023/12/03 12:25:30;;;;;;;7.00;4.20;;;24.30;99.90;;;;;;5007612;28;20026;-52
2023/12/03 12:27:56;;;;;;;6.90;4.35;;;24.30;99.90;;;;;;4991207;28;20034;-52
2023/12/03 12:30:28;;;;;;;6.82;4.90;;;24.30;99.90;;;;;;4992352;28;20035;-50
2023/12/03 12:32:55;;;;;;;12.15;4.60;;;24.30;99.90;;;;;;4992181;28;20073;-49
2023/12/03 12:35:22;;;;;;;9.40;5.10;;;24.40;99.90;;;;;;4992809;28;20343;-50
2023/12/03 12:38:08;;;;;;;7.40;4.43;;;24.40;99.90;;;;;;4992294;28;20022;-51
2023/12/03 12:40:39;;;;;;;8.07;4.25;;;24.40;99.90;;;;;;4996271;28;20023;-51
2023/12/03 12:43:10;;;;;;;8.80;4.60;;;24.50;99.90;;;;;;4996575;28;20045;-51
2023/12/03 12:45:38;;;;;;;6.57;4.35;;;24.50;99.90;;;;;;4996632;28;20022;-51